Lifter — V2DD4 — position and weather

sailwx.info

Track history (hours):
 
Tides and Currents Weather Stations Pressure Air Temp Water Temp Dewpoint Dewpoint Depression Visibility Wind Speed Wind Dir Waves Ship Positions

Lifter

Last reported at 2016-Aug-27 00:31 UTC. Time now 2016-Aug-27 01:13 UTC.
Position N 51°15' E 004°24'.

Length 119 m; draft 4.5 m.

Type: Ship (hazmat cat A). MMSI: 305175000.

Date/timePositionNaut miles runAvg speedWind from/ knotsBaromVisibWave heightAir tempDewpointWater temp
2016-Aug-27 00:31N 51°15' E 004°24'0 0.0
2016-Aug-26 23:31N 51°15' E 004°24'0 0.0
2016-Aug-26 22:31N 51°15' E 004°24'0 0.0
2016-Aug-26 21:31N 51°15' E 004°24'0 0.0
2016-Aug-26 20:31N 51°15' E 004°24'0 0.0
2016-Aug-26 19:31N 51°15' E 004°24'0 0.0
2016-Aug-26 18:31N 51°15' E 004°24'0 0.0
2016-Aug-26 17:31N 51°15' E 004°24'0 0.0
2016-Aug-26 16:31N 51°15' E 004°24'0 0.0
2016-Aug-26 15:31N 51°15' E 004°24'0 0.0
2016-Aug-26 14:31N 51°15' E 004°24'3 2.6
2016-Aug-26 13:33N 51°16' E 004°20'1 1.4
2016-Aug-26 12:32N 51°17' E 004°23'0 0.0
2016-Aug-26 11:32N 51°17' E 004°23'0 0.0
2016-Aug-26 10:32N 51°17' E 004°23'0 0.0
2016-Aug-26 09:32N 51°17' E 004°23'0 0.0
2016-Aug-26 08:32N 51°17' E 004°23'4 4.3
2016-Aug-26 07:33N 51°20' E 004°18'1 1.0
2016-Aug-26 06:33N 51°21' E 004°17'13 6.4
2016-Aug-26 04:33N 51°23' E 003°57'1010.3
2016-Aug-26 03:33N 51°26' E 003°41'9 9.1
2016-Aug-26 02:33N 51°25' E 003°27'1111.4
2016-Aug-26 01:33N 51°23' E 003°09'1212.3
2016-Aug-26 00:33N 51°22' E 002°49'8 8.1
2016-Aug-25 23:33N 51°22' E 002°36'8 7.7
2016-Aug-25 22:33N 51°21' E 002°24'2 2.5
2016-Aug-25 21:33N 51°20' E 002°20'3 3.0
2016-Aug-25 20:33N 51°20' E 002°25'1211.7
2016-Aug-25 19:33N 51°14' E 002°09'1515.3
2016-Aug-25 18:33N 51°06' E 001°48'1616.4
2016-Aug-25 17:33N 50°54' E 001°30'1615.4
2016-Aug-25 16:33N 50°41' E 001°18'1814.9
2016-Aug-25 15:19N 50°30' E 000°55'1315.1
2016-Aug-25 14:26N 50°26' E 000°35'1415.7
2016-Aug-25 13:33N 50°23' E 000°14'1515.2
2016-Aug-25 12:33N 50°23' W 000°10'1515.0
2016-Aug-25 11:34N 50°30' W 000°31'1514.7
2016-Aug-25 10:33N 50°38' W 000°51'1313.2
2016-Aug-25 09:34N 50°45' W 001°08'1212.2
2016-Aug-25 08:33N 50°53' W 001°23'2 1.7
2016-Aug-25 07:13N 50°54' W 001°26'0 0.0
2016-Aug-25 06:31N 50°54' W 001°26'0 0.0
2016-Aug-25 04:20N 50°54' W 001°26'0 0.4
2016-Aug-25 03:28N 50°54' W 001°25'0 0.0
2016-Aug-25 02:31N 50°54' W 001°25'0 0.0
2016-Aug-25 01:31N 50°54' W 001°25'0 0.0
2016-Aug-25 00:28N 50°54' W 001°25'0 0.0
2016-Aug-24 23:28N 50°54' W 001°25'0 0.0
2016-Aug-24 22:28N 50°54' W 001°25'0 0.0
2016-Aug-24 21:31N 50°54' W 001°25'0 0.0
2016-Aug-24 20:31N 50°54' W 001°25'0 0.0
2016-Aug-24 19:28N 50°54' W 001°25'0 0.0
2016-Aug-24 18:31N 50°54' W 001°25'0 0.0
2016-Aug-24 17:10N 50°54' W 001°25'0 0.0
2016-Aug-24 16:22N 50°54' W 001°25'0 0.0
2016-Aug-24 15:10N 50°54' W 001°25'0 0.0
2016-Aug-24 13:22N 50°54' W 001°25'0 0.0
2016-Aug-24 11:22N 50°54' W 001°25'0 0.0
2016-Aug-24 10:28N 50°54' W 001°25'0 0.0
2016-Aug-24 09:31N 50°54' W 001°25'0 0.0
2016-Aug-24 07:28N 50°54' W 001°25'4 4.3
2016-Aug-24 06:33N 50°51' W 001°21'18 8.8
2016-Aug-24 04:33N 50°40' W 000°59'5 4.6
2016-Aug-24 03:33N 50°38' W 001°05'0 0.1
2016-Aug-24 02:33N 50°38' W 001°05'0 0.1
2016-Aug-24 01:33N 50°38' W 001°05'0 0.0
2016-Aug-24 00:33N 50°38' W 001°05'5 4.7
2016-Aug-23 23:33N 50°33' W 001°03'1717.0
2016-Aug-23 22:33N 50°28' W 001°29'4814.4
2016-Aug-23 19:13N 50°15' W 002°41'812.4
2016-Aug-23 18:33N 50°13' W 002°54'1212.2
2016-Aug-23 17:33N 50°10' W 003°12'1211.9
2016-Aug-23 16:33N 50°06' W 003°30'1211.9
2016-Aug-23 15:33N 50°03' W 003°47'1312.7
2016-Aug-23 14:33N 49°60' W 004°06'1313.1
2016-Aug-23 13:33N 49°56' W 004°26'1313.2
2016-Aug-23 12:33N 49°53' W 004°46'1313.4
2016-Aug-23 11:33N 49°53' W 005°07'1414.0
2016-Aug-23 10:33N 49°54' W 005°29'1514.6
2016-Aug-23 09:33N 49°54' W 005°51'1111.3
2016-Aug-23 08:33N 50°04' W 006°01'1512.8
2016-Aug-23 07:22N 50°19' W 006°01'1312.5
2016-Aug-23 06:20N 50°31' W 006°06'2313.0
2016-Aug-23 04:32N 50°53' W 006°18'1713.3
2016-Aug-23 03:15N 51°09' W 006°27'2413.3
2016-Aug-23 01:28N 51°32' W 006°40'1213.1
2016-Aug-23 00:33N 51°43' W 006°46'1313.1
2016-Aug-22 23:33N 51°56' W 006°52'1313.0
2016-Aug-22 22:33N 52°08' W 006°58'9 8.5
2016-Aug-22 21:33N 52°16' W 007°01'1 0.8
2016-Aug-22 20:31N 52°16' W 007°02'0 0.0
2016-Aug-22 19:28N 52°16' W 007°02'0 0.0
2016-Aug-22 18:28N 52°16' W 007°02'0 0.0
2016-Aug-22 17:31N 52°16' W 007°02'0 0.0
2016-Aug-22 16:28N 52°16' W 007°02'0 0.0
2016-Aug-22 15:31N 52°16' W 007°02'0 0.0
2016-Aug-22 14:31N 52°16' W 007°02'0 0.0
2016-Aug-22 13:31N 52°16' W 007°02'0 0.0
2016-Aug-22 12:28N 52°16' W 007°02'0 0.0
2016-Aug-22 11:31N 52°16' W 007°02'0 0.0
2016-Aug-22 10:31N 52°16' W 007°02'0 0.0
2016-Aug-22 09:31N 52°16' W 007°02'0 0.0
2016-Aug-22 08:28N 52°16' W 007°02'0 0.0
2016-Aug-22 07:31N 52°16' W 007°02'0 0.0
2016-Aug-22 06:31N 52°16' W 007°02'0 0.0
2016-Aug-22 05:31N 52°16' W 007°02'0 0.0
2016-Aug-22 04:31N 52°16' W 007°02'0 0.0
2016-Aug-22 03:28N 52°16' W 007°02'0 0.0
2016-Aug-22 02:28N 52°16' W 007°02'0 0.0
2016-Aug-22 01:28N 52°16' W 007°02'0 0.0
2016-Aug-22 00:28N 52°16' W 007°02'0 0.0
2016-Aug-21 23:28N 52°16' W 007°02'0 0.0
2016-Aug-21 22:31N 52°16' W 007°02'0 0.0
2016-Aug-21 21:28N 52°16' W 007°02'0 0.0
2016-Aug-21 20:28N 52°16' W 007°02'0 0.0
2016-Aug-21 19:28N 52°16' W 007°02'0 0.0
2016-Aug-21 18:31N 52°16' W 007°02'0 0.0
2016-Aug-21 17:28N 52°16' W 007°02'0 0.0
2016-Aug-21 16:22N 52°16' W 007°02'0 0.0
2016-Aug-21 15:19N 52°16' W 007°02'0 0.0
2016-Aug-21 14:28N 52°16' W 007°02'0 0.0
2016-Aug-21 13:31N 52°16' W 007°02'0 0.0
2016-Aug-21 12:31N 52°16' W 007°02'0 0.0
2016-Aug-21 11:31N 52°16' W 007°02'0 0.0
2016-Aug-21 10:31N 52°16' W 007°02'0 0.0
2016-Aug-21 09:28N 52°16' W 007°02'0 0.0
2016-Aug-21 08:31N 52°16' W 007°02'0 0.0
2016-Aug-21 07:31N 52°16' W 007°02'0 0.0
2016-Aug-21 06:31N 52°16' W 007°02'0 0.0
2016-Aug-21 05:31N 52°16' W 007°02'0 0.0
2016-Aug-21 04:31N 52°16' W 007°02'0 0.0
2016-Aug-21 03:28N 52°16' W 007°02'0 0.0
2016-Aug-21 02:22N 52°16' W 007°02'0 0.0
2016-Aug-21 01:31N 52°16' W 007°02'0 0.0
2016-Aug-21 00:28N 52°16' W 007°02'0 0.0
2016-Aug-20 23:31N 52°16' W 007°02'0 0.0
2016-Aug-20 22:31N 52°16' W 007°02'0 0.0
2016-Aug-20 21:28N 52°16' W 007°02'0 0.0
2016-Aug-20 20:28N 52°16' W 007°02'0 0.0
2016-Aug-20 19:31N 52°16' W 007°02'0 0.0
2016-Aug-20 18:28N 52°16' W 007°02'0 0.0
2016-Aug-20 17:28N 52°16' W 007°02'0 0.0
2016-Aug-20 16:31N 52°16' W 007°02'0 0.0
2016-Aug-20 15:28N 52°16' W 007°02'0 0.0
2016-Aug-20 14:28N 52°16' W 007°02'0 0.0
2016-Aug-20 13:31N 52°16' W 007°02'0 0.0
2016-Aug-20 12:31N 52°16' W 007°02'0 0.0
2016-Aug-20 11:31N 52°16' W 007°02'0 0.0
2016-Aug-20 10:28N 52°16' W 007°02'0 0.0
2016-Aug-20 09:25N 52°16' W 007°02'0 0.0
2016-Aug-20 08:31N 52°16' W 007°02'0 0.0
2016-Aug-20 07:28N 52°16' W 007°02'0 0.0
2016-Aug-20 06:28N 52°16' W 007°02'0 0.0
2016-Aug-20 05:28N 52°16' W 007°02'0 0.0
2016-Aug-20 04:31N 52°16' W 007°02'0 0.0
2016-Aug-20 03:31N 52°16' W 007°02'0 0.0
2016-Aug-20 02:22N 52°16' W 007°02'0 0.0
2016-Aug-20 01:31N 52°16' W 007°02'0 0.0
2016-Aug-20 00:28N 52°16' W 007°02'0 0.0
2016-Aug-19 23:31N 52°16' W 007°02'0 0.0
2016-Aug-19 22:28N 52°16' W 007°02'0 0.0
2016-Aug-19 21:28N 52°16' W 007°02'0 0.0
2016-Aug-19 20:25N 52°16' W 007°02'0 0.0
2016-Aug-19 19:28N 52°16' W 007°02'0 0.0
2016-Aug-19 18:28N 52°16' W 007°02'0 0.0
2016-Aug-19 17:31N 52°16' W 007°02'0 0.0
2016-Aug-19 16:28N 52°16' W 007°02'0 0.0
2016-Aug-19 15:31N 52°16' W 007°02'0 0.0
2016-Aug-19 14:31N 52°16' W 007°02'0 0.0
2016-Aug-19 13:31N 52°16' W 007°02'0 0.0
2016-Aug-19 12:25N 52°16' W 007°02'0 0.0
2016-Aug-19 11:31N 52°16' W 007°02'3 3.3
2016-Aug-19 10:33N 52°14' W 006°57'9 8.8
2016-Aug-19 09:33N 52°06' W 006°59'1312.7
2016-Aug-19 08:33N 51°53' W 007°03'1713.9
2016-Aug-19 07:22N 51°37' W 007°09'  
Track history (hours):
 
Tides and Currents Weather Stations Pressure Air Temp Water Temp Dewpoint Dewpoint Depression Visibility Wind Speed Wind Dir Waves Ship Positions

Lifter

Last reported at 2016-Aug-27 00:31 UTC. Time now 2016-Aug-27 01:13 UTC.
Position N 51°15' E 004°24'.

Length 119 m; draft 4.5 m.

Type: Ship (hazmat cat A). MMSI: 305175000.

Date/timePositionNaut miles runAvg speedWind from/ knotsBaromVisibWave heightAir tempDewpointWater temp
2016-Aug-27 00:31N 51°15' E 004°24'0 0.0
2016-Aug-26 23:31N 51°15' E 004°24'0 0.0
2016-Aug-26 22:31N 51°15' E 004°24'0 0.0
2016-Aug-26 21:31N 51°15' E 004°24'0 0.0
2016-Aug-26 20:31N 51°15' E 004°24'0 0.0
2016-Aug-26 19:31N 51°15' E 004°24'0 0.0
2016-Aug-26 18:31N 51°15' E 004°24'0 0.0
2016-Aug-26 17:31N 51°15' E 004°24'0 0.0
2016-Aug-26 16:31N 51°15' E 004°24'0 0.0
2016-Aug-26 15:31N 51°15' E 004°24'0 0.0
2016-Aug-26 14:31N 51°15' E 004°24'3 2.6
2016-Aug-26 13:33N 51°16' E 004°20'1 1.4
2016-Aug-26 12:32N 51°17' E 004°23'0 0.0
2016-Aug-26 11:32N 51°17' E 004°23'0 0.0
2016-Aug-26 10:32N 51°17' E 004°23'0 0.0
2016-Aug-26 09:32N 51°17' E 004°23'0 0.0
2016-Aug-26 08:32N 51°17' E 004°23'4 4.3
2016-Aug-26 07:33N 51°20' E 004°18'1 1.0
2016-Aug-26 06:33N 51°21' E 004°17'13 6.4
2016-Aug-26 04:33N 51°23' E 003°57'1010.3
2016-Aug-26 03:33N 51°26' E 003°41'9 9.1
2016-Aug-26 02:33N 51°25' E 003°27'1111.4
2016-Aug-26 01:33N 51°23' E 003°09'1212.3
2016-Aug-26 00:33N 51°22' E 002°49'8 8.1
2016-Aug-25 23:33N 51°22' E 002°36'8 7.7
2016-Aug-25 22:33N 51°21' E 002°24'2 2.5
2016-Aug-25 21:33N 51°20' E 002°20'3 3.0
2016-Aug-25 20:33N 51°20' E 002°25'1211.7
2016-Aug-25 19:33N 51°14' E 002°09'1515.3
2016-Aug-25 18:33N 51°06' E 001°48'1616.4
2016-Aug-25 17:33N 50°54' E 001°30'1615.4
2016-Aug-25 16:33N 50°41' E 001°18'1814.9
2016-Aug-25 15:19N 50°30' E 000°55'1315.1
2016-Aug-25 14:26N 50°26' E 000°35'1415.7
2016-Aug-25 13:33N 50°23' E 000°14'1515.2
2016-Aug-25 12:33N 50°23' W 000°10'1515.0
2016-Aug-25 11:34N 50°30' W 000°31'1514.7
2016-Aug-25 10:33N 50°38' W 000°51'1313.2
2016-Aug-25 09:34N 50°45' W 001°08'1212.2
2016-Aug-25 08:33N 50°53' W 001°23'2 1.7
2016-Aug-25 07:13N 50°54' W 001°26'0 0.0
2016-Aug-25 06:31N 50°54' W 001°26'0 0.0
2016-Aug-25 04:20N 50°54' W 001°26'0 0.4
2016-Aug-25 03:28N 50°54' W 001°25'0 0.0
2016-Aug-25 02:31N 50°54' W 001°25'0 0.0
2016-Aug-25 01:31N 50°54' W 001°25'0 0.0
2016-Aug-25 00:28N 50°54' W 001°25'0 0.0
2016-Aug-24 23:28N 50°54' W 001°25'0 0.0
2016-Aug-24 22:28N 50°54' W 001°25'0 0.0
2016-Aug-24 21:31N 50°54' W 001°25'0 0.0
2016-Aug-24 20:31N 50°54' W 001°25'0 0.0
2016-Aug-24 19:28N 50°54' W 001°25'0 0.0
2016-Aug-24 18:31N 50°54' W 001°25'0 0.0
2016-Aug-24 17:10N 50°54' W 001°25'0 0.0
2016-Aug-24 16:22N 50°54' W 001°25'0 0.0
2016-Aug-24 15:10N 50°54' W 001°25'0 0.0
2016-Aug-24 13:22N 50°54' W 001°25'0 0.0
2016-Aug-24 11:22N 50°54' W 001°25'0 0.0
2016-Aug-24 10:28N 50°54' W 001°25'0 0.0
2016-Aug-24 09:31N 50°54' W 001°25'0 0.0
2016-Aug-24 07:28N 50°54' W 001°25'4 4.3
2016-Aug-24 06:33N 50°51' W 001°21'18 8.8
2016-Aug-24 04:33N 50°40' W 000°59'5 4.6
2016-Aug-24 03:33N 50°38' W 001°05'0 0.1
2016-Aug-24 02:33N 50°38' W 001°05'0 0.1
2016-Aug-24 01:33N 50°38' W 001°05'0 0.0
2016-Aug-24 00:33N 50°38' W 001°05'5 4.7
2016-Aug-23 23:33N 50°33' W 001°03'1717.0
2016-Aug-23 22:33N 50°28' W 001°29'4814.4
2016-Aug-23 19:13N 50°15' W 002°41'812.4
2016-Aug-23 18:33N 50°13' W 002°54'1212.2
2016-Aug-23 17:33N 50°10' W 003°12'1211.9
2016-Aug-23 16:33N 50°06' W 003°30'1211.9
2016-Aug-23 15:33N 50°03' W 003°47'1312.7
2016-Aug-23 14:33N 49°60' W 004°06'1313.1
2016-Aug-23 13:33N 49°56' W 004°26'1313.2
2016-Aug-23 12:33N 49°53' W 004°46'1313.4
2016-Aug-23 11:33N 49°53' W 005°07'1414.0
2016-Aug-23 10:33N 49°54' W 005°29'1514.6
2016-Aug-23 09:33N 49°54' W 005°51'1111.3
2016-Aug-23 08:33N 50°04' W 006°01'1512.8
2016-Aug-23 07:22N 50°19' W 006°01'1312.5
2016-Aug-23 06:20N 50°31' W 006°06'2313.0
2016-Aug-23 04:32N 50°53' W 006°18'1713.3
2016-Aug-23 03:15N 51°09' W 006°27'2413.3
2016-Aug-23 01:28N 51°32' W 006°40'1213.1
2016-Aug-23 00:33N 51°43' W 006°46'1313.1
2016-Aug-22 23:33N 51°56' W 006°52'1313.0
2016-Aug-22 22:33N 52°08' W 006°58'9 8.5
2016-Aug-22 21:33N 52°16' W 007°01'1 0.8
2016-Aug-22 20:31N 52°16' W 007°02'0 0.0
2016-Aug-22 19:28N 52°16' W 007°02'0 0.0
2016-Aug-22 18:28N 52°16' W 007°02'0 0.0
2016-Aug-22 17:31N 52°16' W 007°02'0 0.0
2016-Aug-22 16:28N 52°16' W 007°02'0 0.0
2016-Aug-22 15:31N 52°16' W 007°02'0 0.0
2016-Aug-22 14:31N 52°16' W 007°02'0 0.0
2016-Aug-22 13:31N 52°16' W 007°02'0 0.0
2016-Aug-22 12:28N 52°16' W 007°02'0 0.0
2016-Aug-22 11:31N 52°16' W 007°02'0 0.0
2016-Aug-22 10:31N 52°16' W 007°02'0 0.0
2016-Aug-22 09:31N 52°16' W 007°02'0 0.0
2016-Aug-22 08:28N 52°16' W 007°02'0 0.0
2016-Aug-22 07:31N 52°16' W 007°02'0 0.0
2016-Aug-22 06:31N 52°16' W 007°02'0 0.0
2016-Aug-22 05:31N 52°16' W 007°02'0 0.0
2016-Aug-22 04:31N 52°16' W 007°02'0 0.0
2016-Aug-22 03:28N 52°16' W 007°02'0 0.0
2016-Aug-22 02:28N 52°16' W 007°02'0 0.0
2016-Aug-22 01:28N 52°16' W 007°02'0 0.0
2016-Aug-22 00:28N 52°16' W 007°02'0 0.0
2016-Aug-21 23:28N 52°16' W 007°02'0 0.0
2016-Aug-21 22:31N 52°16' W 007°02'0 0.0
2016-Aug-21 21:28N 52°16' W 007°02'0 0.0
2016-Aug-21 20:28N 52°16' W 007°02'0 0.0
2016-Aug-21 19:28N 52°16' W 007°02'0 0.0
2016-Aug-21 18:31N 52°16' W 007°02'0 0.0
2016-Aug-21 17:28N 52°16' W 007°02'0 0.0
2016-Aug-21 16:22N 52°16' W 007°02'0 0.0
2016-Aug-21 15:19N 52°16' W 007°02'0 0.0
2016-Aug-21 14:28N 52°16' W 007°02'0 0.0
2016-Aug-21 13:31N 52°16' W 007°02'0 0.0
2016-Aug-21 12:31N 52°16' W 007°02'0 0.0
2016-Aug-21 11:31N 52°16' W 007°02'0 0.0
2016-Aug-21 10:31N 52°16' W 007°02'0 0.0
2016-Aug-21 09:28N 52°16' W 007°02'0 0.0
2016-Aug-21 08:31N 52°16' W 007°02'0 0.0
2016-Aug-21 07:31N 52°16' W 007°02'0 0.0
2016-Aug-21 06:31N 52°16' W 007°02'0 0.0
2016-Aug-21 05:31N 52°16' W 007°02'0 0.0
2016-Aug-21 04:31N 52°16' W 007°02'0 0.0
2016-Aug-21 03:28N 52°16' W 007°02'0 0.0
2016-Aug-21 02:22N 52°16' W 007°02'0 0.0
2016-Aug-21 01:31N 52°16' W 007°02'0 0.0
2016-Aug-21 00:28N 52°16' W 007°02'0 0.0
2016-Aug-20 23:31N 52°16' W 007°02'0 0.0
2016-Aug-20 22:31N 52°16' W 007°02'0 0.0
2016-Aug-20 21:28N 52°16' W 007°02'0 0.0
2016-Aug-20 20:28N 52°16' W 007°02'0 0.0
2016-Aug-20 19:31N 52°16' W 007°02'0 0.0
2016-Aug-20 18:28N 52°16' W 007°02'0 0.0
2016-Aug-20 17:28N 52°16' W 007°02'0 0.0
2016-Aug-20 16:31N 52°16' W 007°02'0 0.0
2016-Aug-20 15:28N 52°16' W 007°02'0 0.0
2016-Aug-20 14:28N 52°16' W 007°02'0 0.0
2016-Aug-20 13:31N 52°16' W 007°02'0 0.0
2016-Aug-20 12:31N 52°16' W 007°02'0 0.0
2016-Aug-20 11:31N 52°16' W 007°02'0 0.0
2016-Aug-20 10:28N 52°16' W 007°02'0 0.0
2016-Aug-20 09:25N 52°16' W 007°02'0 0.0
2016-Aug-20 08:31N 52°16' W 007°02'0 0.0
2016-Aug-20 07:28N 52°16' W 007°02'0 0.0
2016-Aug-20 06:28N 52°16' W 007°02'0 0.0
2016-Aug-20 05:28N 52°16' W 007°02'0 0.0
2016-Aug-20 04:31N 52°16' W 007°02'0 0.0
2016-Aug-20 03:31N 52°16' W 007°02'0 0.0
2016-Aug-20 02:22N 52°16' W 007°02'0 0.0
2016-Aug-20 01:31N 52°16' W 007°02'0 0.0
2016-Aug-20 00:28N 52°16' W 007°02'0 0.0
2016-Aug-19 23:31N 52°16' W 007°02'0 0.0
2016-Aug-19 22:28N 52°16' W 007°02'0 0.0
2016-Aug-19 21:28N 52°16' W 007°02'0 0.0
2016-Aug-19 20:25N 52°16' W 007°02'0 0.0
2016-Aug-19 19:28N 52°16' W 007°02'0 0.0
2016-Aug-19 18:28N 52°16' W 007°02'0 0.0
2016-Aug-19 17:31N 52°16' W 007°02'0 0.0
2016-Aug-19 16:28N 52°16' W 007°02'0 0.0
2016-Aug-19 15:31N 52°16' W 007°02'0 0.0
2016-Aug-19 14:31N 52°16' W 007°02'0 0.0
2016-Aug-19 13:31N 52°16' W 007°02'0 0.0
2016-Aug-19 12:25N 52°16' W 007°02'0 0.0
2016-Aug-19 11:31N 52°16' W 007°02'3 3.3
2016-Aug-19 10:33N 52°14' W 006°57'9 8.8
2016-Aug-19 09:33N 52°06' W 006°59'1312.7
2016-Aug-19 08:33N 51°53' W 007°03'1713.9
2016-Aug-19 07:22N 51°37' W 007°09'  

Dump ship's entire track history